createdAt,value
2018-07-01T00:02:13.711Z,1.50
2018-07-01T00:04:40.968Z,1.55
2018-07-01T00:07:08.176Z,1.53
2018-07-01T00:09:35.400Z,1.63
2018-07-01T00:12:02.640Z,2.17
2018-07-01T00:14:29.870Z,1.33
2018-07-01T00:16:58.689Z,1.77
2018-07-01T00:19:25.902Z,1.30
2018-07-01T00:21:53.162Z,1.30
2018-07-01T00:24:20.386Z,1.60
2018-07-01T00:26:47.636Z,2.00
2018-07-01T00:29:14.892Z,1.93
2018-07-01T00:31:42.144Z,1.70
2018-07-01T00:34:09.365Z,1.40
2018-07-01T00:36:36.576Z,1.40
2018-07-01T00:39:07.174Z,1.50
2018-07-01T00:41:34.426Z,1.50
2018-07-01T00:44:01.615Z,1.43
2018-07-01T00:46:28.816Z,1.50
2018-07-01T00:48:56.095Z,1.70
2018-07-01T00:51:23.412Z,1.53
2018-07-01T00:53:50.627Z,1.60
2018-07-01T00:56:17.837Z,1.30
2018-07-01T00:58:45.036Z,1.50
2018-07-01T01:01:12.278Z,1.80
2018-07-01T01:03:39.452Z,1.80
2018-07-01T01:06:06.710Z,2.10
2018-07-01T01:08:33.943Z,1.40
2018-07-01T01:11:01.239Z,2.07
2018-07-01T01:13:28.513Z,1.50
2018-07-01T01:15:55.764Z,2.13
2018-07-01T01:18:22.939Z,1.90
2018-07-01T01:20:56.955Z,2.10
2018-07-01T01:23:24.152Z,1.40
2018-07-01T01:25:51.410Z,1.73
2018-07-01T01:28:18.640Z,1.60
2018-07-01T01:30:45.829Z,1.30
2018-07-01T01:33:13.073Z,1.67
2018-07-01T01:35:40.376Z,1.50
2018-07-01T01:38:07.676Z,1.57
2018-07-01T01:40:40.187Z,1.50
2018-07-01T01:43:10.301Z,1.50
2018-07-01T01:45:42.192Z,1.20
2018-07-01T01:48:13.449Z,1.30
2018-07-01T01:50:49.284Z,1.60
2018-07-01T01:53:55.969Z,1.50
2018-07-01T01:56:28.199Z,1.30
2018-07-01T01:59:03.360Z,1.50
2018-07-01T02:01:49.669Z,1.53
2018-07-01T02:04:23.873Z,1.17
2018-07-01T02:06:53.912Z,1.40
2018-07-01T02:09:25.638Z,1.30
2018-07-01T02:11:53.745Z,1.20
2018-07-01T02:14:24.920Z,1.37
2018-07-01T02:16:54.951Z,1.30
2018-07-01T02:19:22.188Z,1.43
2018-07-01T02:21:50.229Z,1.30
2018-07-01T02:24:22.100Z,1.53
2018-07-01T02:26:49.304Z,1.90
2018-07-01T02:29:16.536Z,1.30
2018-07-01T02:31:43.741Z,1.30
2018-07-01T02:34:10.946Z,1.73
2018-07-01T02:36:38.164Z,1.70
2018-07-01T02:39:07.284Z,1.57
2018-07-01T02:41:34.511Z,1.70
2018-07-01T02:44:01.744Z,2.03
2018-07-01T02:46:29.036Z,1.60
2018-07-01T02:48:56.247Z,1.50
2018-07-01T02:51:23.500Z,1.77
2018-07-01T02:53:50.842Z,1.60
2018-07-01T02:56:18.005Z,1.80
2018-07-01T02:58:45.185Z,1.63
2018-07-01T03:01:12.389Z,1.90
2018-07-01T03:03:39.700Z,1.60
2018-07-01T03:06:06.912Z,1.70
2018-07-01T03:08:34.108Z,2.00
2018-07-01T03:11:01.332Z,1.77
2018-07-01T03:13:28.613Z,1.80
2018-07-01T03:15:56.189Z,2.10
2018-07-01T03:18:23.398Z,1.80
2018-07-01T03:20:50.580Z,1.63
2018-07-01T03:23:17.801Z,1.87
2018-07-01T03:25:44.996Z,1.90
2018-07-01T03:28:12.156Z,2.00
2018-07-01T03:30:39.400Z,1.73
2018-07-01T03:33:06.599Z,1.90
2018-07-01T03:35:33.761Z,1.93
2018-07-01T03:38:00.962Z,1.70
2018-07-01T03:40:28.212Z,1.97
2018-07-01T03:42:55.429Z,1.97
2018-07-01T03:45:22.607Z,2.37
2018-07-01T03:47:49.806Z,1.63
2018-07-01T03:50:17.432Z,1.70
2018-07-01T03:52:44.604Z,2.17
2018-07-01T03:55:11.800Z,1.80
2018-07-01T03:57:39.106Z,2.13
2018-07-01T04:00:06.385Z,2.20
2018-07-01T04:02:33.613Z,2.20
2018-07-01T04:05:00.836Z,1.77
2018-07-01T04:07:28.061Z,2.37
2018-07-01T04:09:55.227Z,2.20
2018-07-01T04:12:22.660Z,2.17
2018-07-01T04:14:49.837Z,1.80
2018-07-01T04:17:17.007Z,2.37
2018-07-01T04:19:44.198Z,2.53
2018-07-01T04:22:11.391Z,2.23
2018-07-01T04:24:38.611Z,2.93
2018-07-01T04:27:05.845Z,2.57
2018-07-01T04:29:33.697Z,2.90
2018-07-01T04:32:00.933Z,3.10
2018-07-01T04:34:28.133Z,2.30
2018-07-01T04:36:55.380Z,2.30
2018-07-01T04:39:22.684Z,2.60
2018-07-01T04:41:49.973Z,2.80
2018-07-01T04:44:17.192Z,2.77
2018-07-01T04:46:44.420Z,2.90
2018-07-01T04:49:11.649Z,3.10
2018-07-01T04:51:38.924Z,3.00
2018-07-01T04:54:06.584Z,3.03
2018-07-01T04:56:33.829Z,3.00
2018-07-01T04:59:01.160Z,2.80
2018-07-01T05:01:28.365Z,2.30
2018-07-01T05:03:55.590Z,1.80
2018-07-01T05:06:22.796Z,2.00
2018-07-01T05:08:49.984Z,1.77
2018-07-01T05:11:17.192Z,1.93
2018-07-01T05:13:44.401Z,1.67
2018-07-01T05:16:11.614Z,2.17
2018-07-01T05:18:38.885Z,6.30
2018-07-01T05:21:06.120Z,3.70
2018-07-01T05:23:33.429Z,2.10
2018-07-01T05:26:00.665Z,2.17
2018-07-01T05:28:28.005Z,2.40
2018-07-01T05:30:55.328Z,2.53
2018-07-01T05:33:22.528Z,2.50
2018-07-01T05:35:49.902Z,2.57
2018-07-01T05:38:17.122Z,1.80
2018-07-01T05:40:44.373Z,1.43
2018-07-01T05:43:11.624Z,2.40
2018-07-01T05:45:38.829Z,5.37
2018-07-01T05:48:06.060Z,3.90
2018-07-01T05:50:33.586Z,1.50
2018-07-01T05:53:00.816Z,1.90
2018-07-01T05:55:28.149Z,1.50
2018-07-01T05:57:55.500Z,1.50
2018-07-01T06:00:22.716Z,1.70
2018-07-01T06:02:49.905Z,1.40
2018-07-01T06:05:17.163Z,1.40
2018-07-01T06:07:44.408Z,1.43
2018-07-01T06:10:11.622Z,1.60
2018-07-01T06:12:38.860Z,1.50
2018-07-01T06:15:06.236Z,1.50
2018-07-01T06:17:33.493Z,1.30
2018-07-01T06:20:00.768Z,1.70
2018-07-01T06:22:28.122Z,1.33
2018-07-01T06:24:55.440Z,1.40
2018-07-01T06:27:22.673Z,1.20
2018-07-01T06:29:49.864Z,1.33
2018-07-01T06:32:17.275Z,1.30
2018-07-01T06:34:44.480Z,1.13
2018-07-01T06:37:11.682Z,1.10
2018-07-01T06:39:38.907Z,1.30
2018-07-01T06:42:06.136Z,1.70
2018-07-01T06:44:33.410Z,1.20
2018-07-01T06:47:00.744Z,1.30
2018-07-01T06:49:28.160Z,1.17
2018-07-01T06:51:55.413Z,1.10
2018-07-01T06:54:22.749Z,1.43
2018-07-01T06:56:50.035Z,2.77
2018-07-01T06:59:17.272Z,1.30
2018-07-01T07:01:44.555Z,0.97
2018-07-01T07:04:11.806Z,1.27
2018-07-01T07:06:39.799Z,1.30
2018-07-01T07:09:08.318Z,1.00
2018-07-01T07:11:35.621Z,1.30
2018-07-01T07:14:02.976Z,1.20
2018-07-01T07:16:30.450Z,1.90
2018-07-01T07:18:57.789Z,1.17
2018-07-01T07:21:25.004Z,1.30
2018-07-01T07:23:52.240Z,1.80
2018-07-01T07:26:19.549Z,1.23
2018-07-01T07:28:46.789Z,1.20
2018-07-01T07:31:13.965Z,1.40
2018-07-01T07:33:41.353Z,1.40
2018-07-01T07:36:08.595Z,1.33
2018-07-01T07:38:35.855Z,1.17
2018-07-01T07:41:03.149Z,1.20
2018-07-01T07:43:30.395Z,1.33
2018-07-01T07:45:57.639Z,1.37
2018-07-01T07:48:24.859Z,1.17
2018-07-01T07:50:52.173Z,1.30
2018-07-01T07:53:19.358Z,1.10
2018-07-01T07:55:46.583Z,1.70
2018-07-01T07:58:13.770Z,1.40
2018-07-01T08:00:40.978Z,2.00
2018-07-01T08:03:08.497Z,1.57
2018-07-01T08:05:35.868Z,1.70
2018-07-01T08:08:03.120Z,1.47
2018-07-01T08:10:30.367Z,1.20
2018-07-01T08:12:57.590Z,1.10
2018-07-01T08:15:24.794Z,1.30
2018-07-01T08:17:52.263Z,1.20
2018-07-01T08:20:19.625Z,1.20
2018-07-01T08:22:46.872Z,1.30
2018-07-01T08:25:14.081Z,0.97
2018-07-01T08:27:41.302Z,1.30
2018-07-01T08:30:08.525Z,1.20
2018-07-01T08:32:35.732Z,1.30
2018-07-01T08:35:02.998Z,1.30
2018-07-01T08:37:30.179Z,1.50
2018-07-01T08:44:56.299Z,1.17
2018-07-01T08:47:23.569Z,1.30
2018-07-01T08:49:50.810Z,2.60
2018-07-01T08:52:18.117Z,1.40
2018-07-01T08:54:45.789Z,1.00
2018-07-01T08:57:14.490Z,1.00
2018-07-01T08:59:42.295Z,0.97
2018-07-01T09:02:09.535Z,1.10
2018-07-01T09:04:36.771Z,1.20
2018-07-01T09:07:04.161Z,0.90
2018-07-01T09:09:31.433Z,1.40
2018-07-01T09:11:58.716Z,1.80
2018-07-01T09:14:27.177Z,1.12
2018-07-01T09:16:54.818Z,1.20
2018-07-01T09:19:22.041Z,1.30
2018-07-01T09:21:49.261Z,1.20
2018-07-01T09:24:16.452Z,1.00
2018-07-01T09:26:43.655Z,1.30
2018-07-01T09:29:11.288Z,1.00
2018-07-01T09:31:38.498Z,1.20
2018-07-01T09:34:05.755Z,1.50
2018-07-01T09:36:33.065Z,1.67
2018-07-01T09:39:00.365Z,1.70
2018-07-01T09:41:27.612Z,1.60
2018-07-01T09:56:09.241Z,0.80
2018-07-01T09:58:36.603Z,1.90
2018-07-01T10:01:03.916Z,1.07
2018-07-01T10:15:44.881Z,1.50
2018-07-01T10:18:12.104Z,1.20
2018-07-01T10:20:39.474Z,1.20
2018-07-01T10:23:06.886Z,1.00
2018-07-01T10:25:34.117Z,1.33
2018-07-01T10:28:01.371Z,1.00
2018-07-01T10:35:22.260Z,1.03
2018-07-01T10:37:49.474Z,1.00
2018-07-01T10:40:17.189Z,0.90
2018-07-01T10:42:44.632Z,1.27
2018-07-01T10:45:11.950Z,1.00
2018-07-01T10:47:39.508Z,0.90
2018-07-01T10:50:06.846Z,1.13
2018-07-01T10:52:34.256Z,0.97
2018-07-01T10:55:01.525Z,1.10
2018-07-01T10:57:28.869Z,1.30
2018-07-01T10:59:56.230Z,1.07
2018-07-01T11:02:23.726Z,1.50
2018-07-01T11:04:51.070Z,0.93
2018-07-01T11:07:18.309Z,1.10
2018-07-01T11:17:06.168Z,0.90
2018-07-01T11:22:00.180Z,0.80
2018-07-01T11:24:27.458Z,1.10
2018-07-01T11:26:54.777Z,1.20
2018-07-01T11:29:21.963Z,1.85
2018-07-01T11:31:49.178Z,0.93
2018-07-01T11:34:16.504Z,1.00
2018-07-01T11:46:31.465Z,1.20
2018-07-01T11:53:52.261Z,0.90
2018-07-01T12:13:26.879Z,1.12
2018-07-01T12:15:54.117Z,1.20
2018-07-01T12:18:21.365Z,1.02
2018-07-01T12:20:49.210Z,1.00
2018-07-01T12:23:16.753Z,1.00
2018-07-01T12:25:44.039Z,1.00
2018-07-01T12:28:11.395Z,1.10
2018-07-01T12:30:38.613Z,1.00
2018-07-01T12:33:05.917Z,1.10
2018-07-01T12:35:33.145Z,1.10
2018-07-01T12:38:00.371Z,1.10
2018-07-01T12:40:27.623Z,1.07
2018-07-01T12:42:54.858Z,1.00
2018-07-01T12:45:22.106Z,1.00
2018-07-01T12:47:49.696Z,1.03
2018-07-01T12:50:16.926Z,0.90
2018-07-01T12:52:44.182Z,0.90
2018-07-01T12:55:11.381Z,1.00
2018-07-01T12:57:38.642Z,1.00
2018-07-01T13:00:06.409Z,0.90
2018-07-01T13:02:33.759Z,1.05
2018-07-01T13:05:00.908Z,0.90
2018-07-01T13:07:28.186Z,0.90
2018-07-01T13:09:55.410Z,1.00
2018-07-01T13:12:22.748Z,1.10
2018-07-01T13:14:50.066Z,1.30
2018-07-01T13:17:17.373Z,1.50
2018-07-01T13:19:44.672Z,1.60
2018-07-01T13:22:12.751Z,1.10
2018-07-01T13:24:40.351Z,1.10
2018-07-01T13:27:07.716Z,1.00
2018-07-01T13:29:34.951Z,1.12
2018-07-01T13:32:02.321Z,1.00
2018-07-01T13:34:29.663Z,0.90
2018-07-01T13:36:56.961Z,1.10
2018-07-01T13:39:24.212Z,1.00
2018-07-01T13:41:51.522Z,0.90
2018-07-01T13:44:18.877Z,1.10
2018-07-01T13:46:46.223Z,1.20
2018-07-01T13:49:13.593Z,1.30
2018-07-01T13:51:40.900Z,1.00
2018-07-01T13:54:08.184Z,1.00
2018-07-01T13:56:35.496Z,1.00
2018-07-01T13:59:02.870Z,1.20
2018-07-01T14:01:30.138Z,1.35
2018-07-01T14:03:57.484Z,1.70
2018-07-01T14:06:24.772Z,2.12
2018-07-01T14:08:52.006Z,1.50
2018-07-01T14:11:19.280Z,1.37
2018-07-01T14:13:46.535Z,1.35
2018-07-01T14:16:13.768Z,1.70
2018-07-01T14:18:41.044Z,1.40
2018-07-01T14:21:08.392Z,1.40
2018-07-01T14:23:35.723Z,1.10
2018-07-01T14:26:03.404Z,1.00
2018-07-01T14:28:30.656Z,1.80
2018-07-01T14:30:58.424Z,1.60
2018-07-01T14:33:25.704Z,1.20
2018-07-01T14:35:53.028Z,1.12
2018-07-01T14:38:20.333Z,1.10
2018-07-01T14:40:47.701Z,1.20
2018-07-01T14:43:14.967Z,1.00
2018-07-01T14:45:42.500Z,1.00
2018-07-01T14:48:09.806Z,1.10
2018-07-01T14:50:37.094Z,1.00
2018-07-01T14:53:04.502Z,0.90
2018-07-01T14:55:31.767Z,1.30
2018-07-01T14:58:00.070Z,1.00
2018-07-01T15:02:54.184Z,1.42
2018-07-01T15:05:21.533Z,1.10
2018-07-01T15:07:48.840Z,0.90
2018-07-01T15:10:16.294Z,0.80
2018-07-01T15:12:43.597Z,0.82
2018-07-01T15:15:10.889Z,0.70
2018-07-01T15:17:49.663Z,1.10
2018-07-01T15:20:17.278Z,1.17
2018-07-01T15:22:44.531Z,1.20
2018-07-01T15:25:11.779Z,1.12
2018-07-01T15:27:39.077Z,1.00
2018-07-01T15:32:40.613Z,1.10
2018-07-01T15:35:14.668Z,1.80
2018-07-01T15:37:41.950Z,3.00
2018-07-01T15:40:09.372Z,4.77
2018-07-01T15:42:36.754Z,4.00
2018-07-01T15:45:04.096Z,3.10
2018-07-01T15:47:31.520Z,1.90
2018-07-01T15:49:58.817Z,1.42
2018-07-01T15:52:26.049Z,1.10
2018-07-01T16:46:22.261Z,2.55
2018-07-01T16:48:49.536Z,2.00
2018-07-01T16:51:16.761Z,2.90
2018-07-01T16:53:44.020Z,2.70
2018-07-01T16:56:11.271Z,1.60
2018-07-01T16:58:38.537Z,1.20
2018-07-01T17:01:05.847Z,1.30
2018-07-01T17:03:33.159Z,1.12
2018-07-01T17:06:00.550Z,1.67
2018-07-01T17:08:27.940Z,1.27
2018-07-01T17:10:55.296Z,1.10
2018-07-01T17:13:22.534Z,1.75
2018-07-01T17:15:49.800Z,1.40
2018-07-01T17:28:10.071Z,2.90
2018-07-01T17:30:37.458Z,3.55
2018-07-01T17:33:10.393Z,3.20
2018-07-01T17:40:31.249Z,2.50
2018-07-01T17:42:58.610Z,3.05
2018-07-01T17:45:26.281Z,2.47
2018-07-01T17:50:20.277Z,2.70
2018-07-01T17:52:47.518Z,2.00
2018-07-01T17:55:14.816Z,1.80
2018-07-01T17:57:42.119Z,2.62
2018-07-01T18:00:09.405Z,1.70
2018-07-01T18:02:36.693Z,2.40
2018-07-01T18:05:04.385Z,2.40
2018-07-01T18:07:31.869Z,2.12
2018-07-01T18:09:59.173Z,1.50
2018-07-01T18:12:26.554Z,1.40
2018-07-01T18:14:53.797Z,1.42
2018-07-01T18:17:21.032Z,1.40
2018-07-01T18:19:48.282Z,2.30
2018-07-01T18:22:27.969Z,1.80
2018-07-01T18:24:58.065Z,1.53
2018-07-01T18:27:10.042Z,1.33
2018-07-01T18:29:37.370Z,1.40
2018-07-01T18:32:04.830Z,1.50
2018-07-01T18:34:32.009Z,1.57
2018-07-01T18:36:59.230Z,2.10
2018-07-01T18:39:26.397Z,1.47
2018-07-01T18:41:53.618Z,1.80
2018-07-01T18:44:20.832Z,1.90
2018-07-01T18:46:48.081Z,2.27
2018-07-01T18:49:15.596Z,1.92
2018-07-01T18:51:42.837Z,2.10
2018-07-01T18:54:10.045Z,1.70
2018-07-01T18:56:37.264Z,1.70
2018-07-01T18:59:04.692Z,1.50
2018-07-01T19:01:31.924Z,1.50
2018-07-01T19:03:59.136Z,1.30
2018-07-01T19:06:26.336Z,1.60
2018-07-01T19:08:53.598Z,1.75
2018-07-01T19:11:20.801Z,1.80
2018-07-01T19:13:48.101Z,2.27
2018-07-01T19:16:15.276Z,2.07
2018-07-01T19:18:42.559Z,2.00
2018-07-01T19:21:09.873Z,2.20
2018-07-01T19:23:37.786Z,1.50
2018-07-01T19:26:05.067Z,1.80
2018-07-01T19:28:32.357Z,1.73
2018-07-01T19:30:59.631Z,1.33
2018-07-01T19:33:26.879Z,1.60
2018-07-01T19:35:54.122Z,1.60
2018-07-01T19:38:21.337Z,1.53
2018-07-01T19:40:48.579Z,1.30
2018-07-01T19:43:15.891Z,1.40
2018-07-01T19:45:43.111Z,1.20
2018-07-01T19:48:10.448Z,1.60
2018-07-01T19:50:37.739Z,1.82
2018-07-01T19:53:05.031Z,2.37
2018-07-01T19:55:32.296Z,4.55
2018-07-01T19:57:59.540Z,2.10
2018-07-01T20:00:26.822Z,1.70
2018-07-01T20:02:53.928Z,1.75
2018-07-01T20:05:21.128Z,1.50
2018-07-01T20:07:48.329Z,1.70
2018-07-01T20:10:15.548Z,1.40
2018-07-01T20:12:43.585Z,1.60
2018-07-01T20:15:10.980Z,1.70
2018-07-01T20:17:39.173Z,1.32
2018-07-01T20:20:06.872Z,1.40
2018-07-01T20:22:34.116Z,1.50
2018-07-01T20:25:01.432Z,1.70
2018-07-01T20:27:29.419Z,2.17
2018-07-01T20:29:58.047Z,2.50
2018-07-01T20:32:26.841Z,2.30
2018-07-01T20:34:55.008Z,2.30
2018-07-01T20:37:22.876Z,1.80
2018-07-01T20:39:50.743Z,1.73
2018-07-01T20:42:18.970Z,1.80
2018-07-01T20:44:46.740Z,1.77
2018-07-01T20:47:15.283Z,1.60
2018-07-01T20:49:43.054Z,1.50
2018-07-01T20:52:10.932Z,1.80
2018-07-01T20:54:38.459Z,1.20
2018-07-01T20:57:05.696Z,1.83
2018-07-01T20:59:32.920Z,1.60
2018-07-01T21:02:01.162Z,1.60
2018-07-01T21:04:29.556Z,1.30
2018-07-01T21:06:56.805Z,1.70
2018-07-01T21:09:23.997Z,1.50
2018-07-01T21:11:51.582Z,1.30
2018-07-01T21:14:19.016Z,1.70
2018-07-01T21:16:46.225Z,1.53
2018-07-01T21:19:13.461Z,1.40
2018-07-01T21:21:40.620Z,1.60
2018-07-01T21:24:07.836Z,1.20
2018-07-01T21:26:35.451Z,1.67
2018-07-01T21:29:02.736Z,1.50
2018-07-01T21:31:29.951Z,1.80
2018-07-01T21:33:58.036Z,1.37
2018-07-01T21:36:25.568Z,1.40
2018-07-01T21:38:52.879Z,1.40
2018-07-01T21:41:20.198Z,1.23
2018-07-01T21:43:47.415Z,1.73
2018-07-01T21:46:14.733Z,1.70
2018-07-01T21:48:41.949Z,1.17
2018-07-01T21:51:09.152Z,1.40
2018-07-01T21:53:36.335Z,1.43
2018-07-01T21:56:03.683Z,1.50
2018-07-01T21:58:30.908Z,1.40
2018-07-01T22:01:02.014Z,1.40
2018-07-01T22:03:29.288Z,1.40
2018-07-01T22:05:56.717Z,1.30
2018-07-01T22:08:23.912Z,1.03
2018-07-01T22:12:05.537Z,1.37
2018-07-01T22:14:37.679Z,1.57
2018-07-01T22:17:06.853Z,1.50
2018-07-01T22:19:34.324Z,1.30
2018-07-01T22:22:01.752Z,1.50
2018-07-01T22:24:32.083Z,1.40
2018-07-01T22:26:59.296Z,1.40
2018-07-01T22:29:26.569Z,1.30
2018-07-01T22:31:53.793Z,1.40
2018-07-01T22:34:21.399Z,1.50
2018-07-01T22:36:49.011Z,1.30
2018-07-01T22:39:18.303Z,1.47
2018-07-01T22:41:46.093Z,1.57
2018-07-01T22:44:13.332Z,1.80
2018-07-01T22:46:41.348Z,1.83
2018-07-01T22:49:08.589Z,1.53
2018-07-01T22:51:35.820Z,1.37
2018-07-01T22:54:03.455Z,1.33
2018-07-01T22:56:31.204Z,1.60
2018-07-01T22:58:58.444Z,1.67
2018-07-01T23:01:25.682Z,1.60
2018-07-01T23:03:52.919Z,1.47
2018-07-01T23:06:20.153Z,1.47
2018-07-01T23:08:47.509Z,1.77
2018-07-01T23:11:14.860Z,1.40
2018-07-01T23:13:42.071Z,1.47
2018-07-01T23:16:09.292Z,1.70
2018-07-01T23:18:36.594Z,1.60
2018-07-01T23:21:03.877Z,1.70
2018-07-01T23:23:31.116Z,1.67
2018-07-01T23:25:58.312Z,1.43
2018-07-01T23:28:25.502Z,1.43
2018-07-01T23:30:52.754Z,1.40
2018-07-01T23:33:19.895Z,1.53
2018-07-01T23:35:47.125Z,1.40
2018-07-01T23:38:14.388Z,1.60
2018-07-01T23:40:41.606Z,1.40
2018-07-01T23:43:08.807Z,1.50
2018-07-01T23:45:35.988Z,1.70
2018-07-01T23:48:03.233Z,2.00
2018-07-01T23:50:30.457Z,1.40
2018-07-01T23:52:57.705Z,2.03
2018-07-01T23:55:24.918Z,1.40
2018-07-01T23:57:52.332Z,1.47
